Terminal Aerodrome Forecast
Issued by NWS Blacksburg, VA

Current Version | Previous Version | Text Only | Print | Product List | Glossary Off
Versions: 1 2 3 4 5 6 7 8 9 10 11 12 13 14 15 16 17 18 19 20 21 22 23 24 25 26

000
FTUS41 KRNK 040535
TAFBLF
TAF
KBLF 040535Z 0406/0506 26005KT P6SM VCSH SCT040 BKN100 OVC250
     FM041000 25007KT P6SM SCT070 BKN140 OVC250
     FM041400 28010G18KT P6SM SCT040 BKN250
     FM042200 28008KT P6SM SCT250
     FM050200 26004KT P6SM FEW250=

USA.gov is the U.S. government's official web portal to all federal, state and local government web resources and services.